Welcome to Northern Hawkes Bay. New Zealand.
PWS Header
      nz Flag



Hit Counter


W3C Valid W3C Valid logo


    Wairoa

Select any of the Stations below to visit their websites.










Historic Data from Weather Underground
Select the location of interest below. Wairoa is the default. Please have patience, this Data is slow to load in.
Northern Hawkes Bay Historical Data
Daily Summary for February 20, 2017 Units:  Metric    English   Both
« Previous Day
Next Day »
Daily Weekly Monthly Yearly Custom
  High: Low: Average:
Temperature: 24.6 °C 14.8 °C 20.4 °C
Dew Point: 19.4 °C 12.7 °C 16 °C
Humidity: 98% 56% 77%
Wind Speed: 17.2km/h 0.0km/h 5.2km/h
Wind Gust: 28.0km/h - -
Wind- - SE
Pressure: 1028.7 hPa 1025.6 hPa -
Precipitation: 0.0 mm    
Historical Graphs
 
 
Tabular Data for February 20, 2017
Time Temperature Dew Point Pressure Wind Wind Speed Wind Gust Humidity Rainfall Rate (Hourly) solar
00:01 19.3 °C 17.1 °C 1025.6 hPa Calm   1.1 km/h 87% 0.0 mm 0 W/m2
00:06 19.4 °C 17.2 °C 1025.6 hPa Calm   1.1 km/h 87% 0.0 mm 0 W/m2
00:11 19.3 °C 17.3 °C 1025.6 hPa Calm   1.1 km/h 88% 0.0 mm 0 W/m2
00:16 19.3 °C 17.3 °C 1025.6 hPa East 2.6 km/h 5.0 km/h 88% 0.0 mm 0 W/m2
00:21 19.3 °C 17.4 °C 1025.6 hPa East 3.5 km/h 8.7 km/h 89% 0.0 mm 0 W/m2
00:26 19.5 °C 17.5 °C 1025.6 hPa ESE 5.0 km/h 8.7 km/h 88% 0.0 mm 0 W/m2
00:31 19.7 °C 17.5 °C 1025.6 hPa East 3.5 km/h 8.7 km/h 87% 0.0 mm 0 W/m2
00:36 19.9 °C 17.5 °C 1025.6 hPa East 3.5 km/h 8.7 km/h 86% 0.0 mm 0 W/m2
00:41 20.2 °C 17.4 °C 1026.0 hPa ENE 2.6 km/h 7.2 km/h 84% 0.0 mm 0 W/m2
00:46 19.9 °C 17.3 °C 1026.0 hPa East 2.6 km/h 6.1 km/h 85% 0.0 mm 0 W/m2
00:51 19.8 °C 17.2 °C 1025.6 hPa East 1.1 km/h 5.0 km/h 85% 0.0 mm 0 W/m2
00:56 19.7 °C 17.1 °C 1026.0 hPa Calm   3.5 km/h 85% 0.0 mm 0 W/m2
01:01 19.4 °C 16.8 °C 1026.0 hPa Calm   2.6 km/h 85% 0.0 mm 0 W/m2
01:06 19.4 °C 17.0 °C 1026.0 hPa Calm   1.1 km/h 86% 0.0 mm 0 W/m2
01:11 19.4 °C 17.0 °C 1025.6 hPa Calm   1.1 km/h 86% 0.0 mm 0 W/m2
01:16 19.4 °C 17.2 °C 1026.0 hPa Calm   2.6 km/h 87% 0.0 mm 0 W/m2
01:21 19.3 °C 17.3 °C 1025.6 hPa Calm   3.5 km/h 88% 0.0 mm 0 W/m2
01:26 19.3 °C 17.3 °C 1025.6 hPa ESE 2.6 km/h 5.0 km/h 88% 0.0 mm 0 W/m2
01:31 19.6 °C 17.6 °C 1026.0 hPa ESE 3.5 km/h 9.7 km/h 88% 0.0 mm 0 W/m2
01:36 19.9 °C 17.5 °C 1026.0 hPa ESE 5.0 km/h 9.7 km/h 86% 0.0 mm 0 W/m2
01:41 20.0 °C 17.2 °C 1025.6 hPa ESE 3.5 km/h 9.7 km/h 84% 0.0 mm 0 W/m2
01:46 20.0 °C 17.2 °C 1026.0 hPa ESE 3.5 km/h 8.7 km/h 84% 0.0 mm 0 W/m2
01:51 19.9 °C 17.3 °C 1025.6 hPa East 2.6 km/h 6.1 km/h 85% 0.0 mm 0 W/m2
01:56 19.8 °C 17.4 °C 1025.6 hPa East 1.1 km/h 8.7 km/h 86% 0.0 mm 0 W/m2
02:01 19.7 °C 17.3 °C 1025.6 hPa East 5.0 km/h 11.1 km/h 86% 0.0 mm 0 W/m2
02:06 19.9 °C 17.5 °C 1025.6 hPa East 3.5 km/h 11.1 km/h 86% 0.0 mm 0 W/m2
02:11 19.9 °C 17.5 °C 1025.6 hPa ESE 5.0 km/h 8.7 km/h 86% 0.0 mm 0 W/m2
02:16 19.9 °C 17.3 °C 1025.6 hPa East 2.6 km/h 8.7 km/h 85% 0.0 mm 0 W/m2
02:21 20.0 °C 17.2 °C 1025.6 hPa East 5.0 km/h 7.2 km/h 84% 0.0 mm 0 W/m2
02:26 19.9 °C 17.3 °C 1025.6 hPa East 6.1 km/h 9.7 km/h 85% 0.0 mm 0 W/m2
02:31 19.9 °C 17.3 °C 1025.6 hPa East 2.6 km/h 11.1 km/h 85% 0.0 mm 0 W/m2
02:36 19.9 °C 17.3 °C 1026.0 hPa ESE 3.5 km/h 11.1 km/h 85% 0.0 mm 0 W/m2
02:41 19.7 °C 17.1 °C 1025.6 hPa East 5.0 km/h 8.7 km/h 85% 0.0 mm 0 W/m2
02:46 19.8 °C 17.2 °C 1025.6 hPa East 9.7 km/h 14.8 km/h 85% 0.0 mm 0 W/m2
02:51 20.0 °C 17.1 °C 1025.6 hPa ESE 6.1 km/h 14.8 km/h 83% 0.0 mm 0 W/m2
02:56 20.0 °C 17.1 °C 1026.0 hPa East 5.0 km/h 12.2 km/h 83% 0.0 mm 0 W/m2
03:01 20.1 °C 17.1 °C 1026.0 hPa East 3.5 km/h 12.2 km/h 83% 0.0 mm 0 W/m2
03:06 20.0 °C 17.2 °C 1025.6 hPa East 1.1 km/h 8.7 km/h 84% 0.0 mm 0 W/m2
03:11 20.0 °C 17.2 °C 1025.6 hPa East 2.6 km/h 8.7 km/h 84% 0.0 mm 0 W/m2
03:16 19.9 °C 17.3 °C 1025.6 hPa ESE 1.1 km/h 8.7 km/h 85% 0.0 mm 0 W/m2
03:21 19.8 °C 17.4 °C 1025.6 hPa ESE 5.0 km/h 9.7 km/h 86% 0.0 mm 0 W/m2
03:26 19.8 °C 17.4 °C 1026.0 hPa ESE 8.7 km/h 11.1 km/h 86% 0.0 mm 0 W/m2
03:31 19.8 °C 17.4 °C 1025.6 hPa East 7.2 km/h 12.2 km/h 86% 0.0 mm 0 W/m2
03:36 19.8 °C 17.4 °C 1025.6 hPa East 5.0 km/h 14.8 km/h 86% 0.0 mm 0 W/m2
03:41 19.8 °C 17.2 °C 1025.6 hPa East 6.1 km/h 14.8 km/h 85% 0.0 mm 0 W/m2
03:46 19.8 °C 17.2 °C 1025.6 hPa East 6.1 km/h 11.1 km/h 85% 0.0 mm 0 W/m2
03:51 19.7 °C 17.1 °C 1025.6 hPa ESE 6.1 km/h 12.2 km/h 85% 0.0 mm 0 W/m2
03:56 19.6 °C 17.0 °C 1026.0 hPa ESE 6.1 km/h 12.2 km/h 85% 0.0 mm 0 W/m2
04:01 19.5 °C 16.9 °C 1026.0 hPa East 5.0 km/h 12.2 km/h 85% 0.0 mm 0 W/m2
04:06 19.5 °C 16.9 °C 1025.6 hPa East 3.5 km/h 9.7 km/h 85% 0.0 mm 0 W/m2
04:11 19.5 °C 16.9 °C 1025.6 hPa ESE 3.5 km/h 9.7 km/h 85% 0.0 mm 0 W/m2
04:16 19.5 °C 17.1 °C 1025.6 hPa ESE 1.1 km/h 8.7 km/h 86% 0.0 mm 0 W/m2
04:21 19.3 °C 16.9 °C 1025.6 hPa ESE 2.6 km/h 7.2 km/h 86% 0.0 mm 0 W/m2
04:26 19.3 °C 17.1 °C 1026.0 hPa ESE 3.5 km/h 7.2 km/h 87% 0.0 mm 0 W/m2
04:31 19.2 °C 17.2 °C 1026.0 hPa ESE 6.1 km/h 11.1 km/h 88% 0.0 mm 0 W/m2
04:36 19.1 °C 17.3 °C 1026.0 hPa SE 5.0 km/h 11.1 km/h 89% 0.0 mm 0 W/m2
04:41 19.0 °C 17.3 °C 1026.0 hPa ESE 5.0 km/h 8.7 km/h 90% 0.0 mm 0 W/m2
04:46 19.0 °C 17.3 °C 1025.6 hPa ESE 8.7 km/h 11.1 km/h 90% 0.0 mm 0 W/m2
04:51 19.0 °C 17.3 °C 1025.6 hPa ESE 2.6 km/h 11.1 km/h 90% 0.0 mm 0 W/m2
04:56 18.9 °C 17.4 °C 1026.0 hPa ESE 7.2 km/h 12.2 km/h 91% 0.0 mm 0 W/m2
05:01 19.0 °C 17.2 °C 1026.0 hPa East 7.2 km/h 12.2 km/h 89% 0.0 mm 0 W/m2
05:06 18.9 °C 17.2 °C 1026.0 hPa East 7.2 km/h 12.2 km/h 90% 0.0 mm 0 W/m2
05:11 18.8 °C 17.1 °C 1026.0 hPa East 3.5 km/h 12.2 km/h 90% 0.0 mm 0 W/m2
05:14 18.7 °C 17.2 °C 1026.0 hPa East 6.1 km/h 12.2 km/h 91% 0.0 mm 0 W/m2
05:19 18.5 °C 17.2 °C 1026.0 hPa East 3.5 km/h 9.7 km/h 92% 0.0 mm 0 W/m2
05:29 18.2 °C 17.1 °C 1026.0 hPa Calm   6.1 km/h 93% 0.0 mm 0 W/m2
05:34 18.1 °C 16.9 °C 1026.0 hPa Calm   3.5 km/h 93% 0.0 mm 0 W/m2
05:39 18.1 °C 17.1 °C 1026.3 hPa Calm   1.1 km/h 94% 0.0 mm 0 W/m2
05:44 18.0 °C 17.1 °C 1026.3 hPa Calm   1.1 km/h 94% 0.0 mm 0 W/m2
05:49 18.0 °C 17.1 °C 1026.3 hPa Calm   1.1 km/h 94% 0.0 mm 0 W/m2
05:54 18.0 °C 17.2 °C 1026.3 hPa SE 1.1 km/h 3.5 km/h 95% 0.0 mm 0 W/m2
05:59 18.1 °C 17.3 °C 1026.3 hPa Calm   3.5 km/h 95% 0.0 mm 0 W/m2
06:04 18.1 °C 17.4 °C 1026.3 hPa Calm   3.5 km/h 96% 0.0 mm 0 W/m2
06:09 18.0 °C 17.4 °C 1026.6 hPa Calm   3.5 km/h 96% 0.0 mm 0 W/m2
06:14 18.0 °C 17.4 °C 1026.3 hPa Calm   1.1 km/h 96% 0.0 mm 0 W/m2
06:19 17.9 °C 17.1 °C 1026.3 hPa Calm     95% 0.0 mm 0 W/m2
06:24 17.9 °C 17.1 °C 1026.6 hPa Calm     95% 0.0 mm 0 W/m2
06:29 17.9 °C 17.1 °C 1026.6 hPa Calm     95% 0.0 mm 0 W/m2
06:34 17.9 °C 17.1 °C 1026.6 hPa Calm   2.6 km/h 95% 0.0 mm 0 W/m2
06:39 18.1 °C 17.6 °C 1026.3 hPa South 1.1 km/h 3.5 km/h 97% 0.0 mm 0 W/m2
06:44 18.1 °C 17.6 °C 1026.6 hPa Calm   3.5 km/h 97% 0.0 mm 0 W/m2
06:54 18.0 °C 17.6 °C 1026.6 hPa Calm   2.6 km/h 97% 0.0 mm 4 W/m2
06:59 17.9 °C 17.4 °C 1026.6 hPa Calm     97% 0.0 mm 7 W/m2
07:04 17.9 °C 17.4 °C 1026.6 hPa North 1.1 km/h 2.6 km/h 97% 0.0 mm 10 W/m2
07:09 18.0 °C 17.6 °C 1026.6 hPa North 2.6 km/h 5.0 km/h 97% 0.0 mm 14 W/m2
07:14 18.0 °C 17.7 °C 1026.6 hPa NNW 1.1 km/h 5.0 km/h 98% 0.0 mm 20 W/m2
07:19 18.0 °C 17.7 °C 1026.6 hPa NNW 2.6 km/h 5.0 km/h 98% 0.0 mm 25 W/m2
07:24 18.0 °C 17.7 °C 1027.0 hPa NNW 1.1 km/h 5.0 km/h 98% 0.0 mm 27 W/m2
07:29 18.0 °C 17.7 °C 1026.6 hPa NNW 3.5 km/h 5.0 km/h 98% 0.0 mm 32 W/m2
07:34 18.1 °C 17.8 °C 1027.0 hPa North 1.1 km/h 5.0 km/h 98% 0.0 mm 34 W/m2
07:39 18.2 °C 17.9 °C 1027.0 hPa Calm   5.0 km/h 98% 0.0 mm 39 W/m2
07:44 18.3 °C 18.0 °C 1027.0 hPa Calm   1.1 km/h 98% 0.0 mm 45 W/m2
07:49 18.4 °C 18.1 °C 1027.0 hPa Calm     98% 0.0 mm 45 W/m2
07:54 18.5 °C 18.2 °C 1027.0 hPa Calm     98% 0.0 mm 46 W/m2
07:59 18.5 °C 18.2 °C 1027.3 hPa Calm     98% 0.0 mm 48 W/m2
08:04 18.7 °C 18.4 °C 1027.3 hPa Calm   1.1 km/h 98% 0.0 mm 51 W/m2
08:09 18.7 °C 18.4 °C 1027.3 hPa Calm   1.1 km/h 98% 0.0 mm 69 W/m2
08:14 18.9 °C 18.6 °C 1027.3 hPa NW 1.1 km/h 5.0 km/h 98% 0.0 mm 87 W/m2
08:19 18.9 °C 18.4 °C 1027.3 hPa NW 2.6 km/h 6.1 km/h 97% 0.0 mm 113 W/m2
08:24 19.1 °C 18.4 °C 1027.3 hPa Calm   6.1 km/h 96% 0.0 mm 124 W/m2
08:29 19.3 °C 18.7 °C 1027.3 hPa Calm   3.5 km/h 96% 0.0 mm 158 W/m2
08:34 20.0 °C 19.2 °C 1027.3 hPa NW 1.1 km/h 3.5 km/h 95% 0.0 mm 206 W/m2
08:39 20.5 °C 19.3 °C 1027.3 hPa WSW 2.6 km/h 5.0 km/h 93% 0.0 mm 371 W/m2
08:44 21.7 °C 19.4 °C 1027.3 hPa SSW 1.1 km/h 5.0 km/h 87% 0.0 mm 370 W/m2
08:54 22.8 °C 17.9 °C 1027.7 hPa Calm   5.0 km/h 74% 0.0 mm 294 W/m2
08:59 22.9 °C 17.8 °C 1027.7 hPa ESE 2.6 km/h 6.1 km/h 73% 0.0 mm 269 W/m2
09:04 22.8 °C 17.7 °C 1027.7 hPa SSE 2.6 km/h 7.2 km/h 73% 0.0 mm 216 W/m2
09:09 22.0 °C 17.4 °C 1027.7 hPa SSE 5.0 km/h 8.7 km/h 75% 0.0 mm 189 W/m2
09:14 21.3 °C 17.7 °C 1027.7 hPa South 5.0 km/h 8.7 km/h 80% 0.0 mm 159 W/m2
09:19 21.0 °C 17.8 °C 1027.7 hPa SSW 2.6 km/h 8.7 km/h 82% 0.0 mm 178 W/m2
09:24 21.1 °C 17.9 °C 1027.7 hPa SSW 6.1 km/h 7.2 km/h 82% 0.0 mm 273 W/m2
09:29 21.3 °C 18.1 °C 1027.7 hPa South 5.0 km/h 7.2 km/h 82% 0.0 mm 270 W/m2
09:34 21.6 °C 18.0 °C 1027.7 hPa SSE 2.6 km/h 7.2 km/h 80% 0.0 mm 477 W/m2
09:39 22.2 °C 17.6 °C 1028.0 hPa SSE 3.5 km/h 6.1 km/h 75% 0.0 mm 546 W/m2
09:44 22.7 °C 18.1 °C 1027.7 hPa South 3.5 km/h 7.2 km/h 75% 0.0 mm 402 W/m2
09:49 23.4 °C 18.7 °C 1027.7 hPa SSW 2.6 km/h 8.7 km/h 75% 0.0 mm 615 W/m2
09:54 23.5 °C 18.4 °C 1027.7 hPa SSW 3.5 km/h 9.7 km/h 73% 0.0 mm 610 W/m2
09:59 23.1 °C 18.0 °C 1028.0 hPa SSW 7.2 km/h 11.1 km/h 73% 0.0 mm 243 W/m2
10:04 22.4 °C 17.6 °C 1028.0 hPa SSW 3.5 km/h 11.1 km/h 74% 0.0 mm 220 W/m2
10:09 22.2 °C 17.4 °C 1028.0 hPa SSW 5.0 km/h 8.7 km/h 74% 0.0 mm 258 W/m2
10:14 21.9 °C 17.5 °C 1027.7 hPa SSW 3.5 km/h 8.7 km/h 76% 0.0 mm 210 W/m2
10:19 21.5 °C 17.3 °C 1028.0 hPa SSW 2.6 km/h 9.7 km/h 77% 0.0 mm 170 W/m2
10:24 21.3 °C 17.3 °C 1028.0 hPa SSW 5.0 km/h 9.7 km/h 78% 0.0 mm 144 W/m2
10:29 21.3 °C 17.3 °C 1028.3 hPa SSW 8.7 km/h 13.4 km/h 78% 0.0 mm 142 W/m2
10:34 20.8 °C 17.4 °C 1028.3 hPa South 7.2 km/h 13.4 km/h 81% 0.0 mm 132 W/m2
10:39 20.7 °C 17.6 °C 1028.0 hPa South 6.1 km/h 13.4 km/h 82% 0.0 mm 141 W/m2
10:44 20.7 °C 17.6 °C 1028.3 hPa SSW 5.0 km/h 9.7 km/h 82% 0.0 mm 166 W/m2
10:49 20.9 °C 17.6 °C 1028.3 hPa SSW 2.6 km/h 9.7 km/h 81% 0.0 mm 140 W/m2
10:54 21.0 °C 17.2 °C 1028.3 hPa SSW 3.5 km/h 8.7 km/h 79% 0.0 mm 132 W/m2
10:59 21.0 °C 17.2 °C 1028.3 hPa SSW 6.1 km/h 8.7 km/h 79% 0.0 mm 193 W/m2
11:04 21.1 °C 17.3 °C 1028.3 hPa SSW 6.1 km/h 9.7 km/h 79% 0.0 mm 206 W/m2
11:09 21.2 °C 17.2 °C 1028.3 hPa SSW 6.1 km/h 9.7 km/h 78% 0.0 mm 205 W/m2
11:14 21.2 °C 16.8 °C 1028.3 hPa SW 3.5 km/h 8.7 km/h 76% 0.0 mm 193 W/m2
11:19 21.5 °C 17.1 °C 1028.3 hPa SW 6.1 km/h 8.7 km/h 76% 0.0 mm 286 W/m2
11:24 22.0 °C 16.9 °C 1028.0 hPa SSW 6.1 km/h 9.7 km/h 73% 0.0 mm 355 W/m2
11:29 22.3 °C 16.6 °C 1028.3 hPa SSW 6.1 km/h 12.2 km/h 70% 0.0 mm 773 W/m2
11:34 23.1 °C 16.9 °C 1028.0 hPa SSW 7.2 km/h 12.2 km/h 68% 0.0 mm 194 W/m2
11:39 22.5 °C 15.6 °C 1028.0 hPa SSW 3.5 km/h 12.2 km/h 65% 0.0 mm 224 W/m2
11:44 22.5 °C 16.3 °C 1028.0 hPa South 5.0 km/h 12.2 km/h 68% 0.0 mm 253 W/m2
11:49 22.3 °C 16.1 °C 1028.0 hPa SSE 6.1 km/h 9.7 km/h 68% 0.0 mm 313 W/m2
11:54 22.4 °C 16.0 °C 1027.7 hPa SE 1.1 km/h 9.7 km/h 67% 0.0 mm 301 W/m2
11:59 23.0 °C 16.3 °C 1027.7 hPa SE 5.0 km/h 13.4 km/h 66% 0.0 mm 928 W/m2
12:04 23.6 °C 15.9 °C 1027.7 hPa SE 7.2 km/h 14.8 km/h 62% 0.0 mm 523 W/m2
12:09 23.4 °C 15.7 °C 1027.7 hPa SE 6.1 km/h 14.8 km/h 62% 0.0 mm 498 W/m2
12:14 23.5 °C 16.1 °C 1027.7 hPa SSE 7.2 km/h 14.8 km/h 63% 0.0 mm 246 W/m2
12:19 23.5 °C 16.6 °C 1027.7 hPa SSE 8.7 km/h 14.8 km/h 65% 0.0 mm 241 W/m2
12:24 22.8 °C 16.1 °C 1027.7 hPa SSE 6.1 km/h 15.8 km/h 66% 0.0 mm 192 W/m2
12:29 22.3 °C 16.3 °C 1027.7 hPa SSE 7.2 km/h 15.8 km/h 69% 0.0 mm 256 W/m2
12:34 22.4 °C 16.4 °C 1027.3 hPa SSE 6.1 km/h 13.4 km/h 69% 0.0 mm 504 W/m2
12:39 22.5 °C 16.8 °C 1027.7 hPa SE 7.2 km/h 14.8 km/h 70% 0.0 mm 293 W/m2
12:44 22.4 °C 16.4 °C 1027.7 hPa ESE 7.2 km/h 14.8 km/h 69% 0.0 mm 207 W/m2
12:49 22.3 °C 16.3 °C 1027.7 hPa ESE 5.0 km/h 12.2 km/h 69% 0.0 mm 195 W/m2
12:54 22.2 °C 16.1 °C 1027.3 hPa ESE 11.1 km/h 18.3 km/h 68% 0.0 mm 187 W/m2
12:59 21.9 °C 15.7 °C 1027.3 hPa ESE 7.2 km/h 25.6 km/h 68% 0.0 mm 169 W/m2
13:04 22.0 °C 16.3 °C 1027.3 hPa ESE 13.4 km/h 25.6 km/h 70% 0.0 mm 965 W/m2
13:09 23.0 °C 17.0 °C 1027.3 hPa ESE 12.2 km/h 19.5 km/h 69% 0.0 mm 972 W/m2
13:14 23.7 °C 16.7 °C 1027.3 hPa ESE 13.4 km/h 19.5 km/h 65% 0.0 mm 748 W/m2
13:19 23.5 °C 16.6 °C 1027.3 hPa ESE 6.1 km/h 23.3 km/h 65% 0.0 mm 999 W/m2
13:24 23.9 °C 16.4 °C 1027.3 hPa SE 11.1 km/h 23.3 km/h 63% 0.0 mm 1045 W/m2
13:29 23.8 °C 16.1 °C 1027.3 hPa ESE 13.4 km/h 23.3 km/h 62% 0.0 mm 187 W/m2
13:34 23.0 °C 16.1 °C 1027.3 hPa ESE 11.1 km/h 23.3 km/h 65% 0.0 mm 918 W/m2
13:39 23.5 °C 16.1 °C 1027.3 hPa ESE 11.1 km/h 23.3 km/h 63% 0.0 mm 918 W/m2
13:44 23.7 °C 15.8 °C 1027.3 hPa ESE 11.1 km/h 23.3 km/h 61% 0.0 mm 922 W/m2
13:49 24.0 °C 15.5 °C 1027.0 hPa ESE 15.8 km/h 23.3 km/h 59% 0.0 mm 912 W/m2
13:54 24.1 °C 15.3 °C 1027.3 hPa ESE 13.4 km/h 23.3 km/h 58% 0.0 mm 912 W/m2
13:59 24.1 °C 15.6 °C 1027.3 hPa ESE 6.1 km/h 23.3 km/h 59% 0.0 mm 901 W/m2
14:04 24.4 °C 16.2 °C 1027.0 hPa ESE 8.7 km/h 21.9 km/h 60% 0.0 mm 902 W/m2
14:08 24.2 °C 15.9 °C 1027.0 hPa SE 11.1 km/h 21.9 km/h 60% 0.0 mm 886 W/m2
14:14 23.9 °C 15.9 °C 1027.0 hPa ESE 9.7 km/h 25.6 km/h 61% 0.0 mm 874 W/m2
14:19 24.1 °C 15.9 °C 1027.0 hPa ESE 7.2 km/h 25.6 km/h 60% 0.0 mm 861 W/m2
14:24 24.2 °C 15.9 °C 1027.0 hPa ESE 9.7 km/h 24.5 km/h 60% 0.0 mm 857 W/m2
14:29 24.2 °C 16.5 °C 1027.0 hPa ESE 9.7 km/h 19.5 km/h 62% 0.0 mm 840 W/m2
14:34 23.8 °C 16.1 °C 1027.0 hPa ESE 12.2 km/h 21.9 km/h 62% 0.0 mm 824 W/m2
14:39 23.8 °C 15.6 °C 1027.0 hPa SE 12.2 km/h 21.9 km/h 60% 0.0 mm 831 W/m2
14:44 23.8 °C 15.6 °C 1027.0 hPa ESE 8.7 km/h 23.3 km/h 60% 0.0 mm 830 W/m2
14:49 24.0 °C 15.5 °C 1027.0 hPa ESE 12.2 km/h 25.6 km/h 59% 0.0 mm 644 W/m2
14:54 24.1 °C 15.6 °C 1027.0 hPa ESE 9.7 km/h 25.6 km/h 59% 0.0 mm 663 W/m2
14:59 23.6 °C 15.7 °C 1027.0 hPa ESE 7.2 km/h 21.9 km/h 61% 0.0 mm 590 W/m2
15:04 23.8 °C 15.8 °C 1027.0 hPa ESE 12.2 km/h 23.3 km/h 61% 0.0 mm 743 W/m2
15:08 24.1 °C 15.9 °C 1027.0 hPa ESE 9.7 km/h 23.3 km/h 60% 0.0 mm 523 W/m2
15:14 24.2 °C 15.7 °C 1027.0 hPa East 11.1 km/h 27.0 km/h 59% 0.0 mm 553 W/m2
15:18 24.4 °C 16.2 °C 1027.0 hPa ESE 13.4 km/h 27.0 km/h 60% 0.0 mm 598 W/m2
15:24 23.9 °C 15.4 °C 1027.0 hPa SE 12.2 km/h 27.0 km/h 59% 0.0 mm 482 W/m2
15:28 23.9 °C 15.2 °C 1026.6 hPa SE 14.8 km/h 27.0 km/h 58% 0.0 mm 536 W/m2
15:34 23.7 °C 15.2 °C 1026.6 hPa ESE 12.2 km/h 24.5 km/h 59% 0.0 mm 545 W/m2
15:38 23.9 °C 15.4 °C 1026.6 hPa ESE 8.7 km/h 24.5 km/h 59% 0.0 mm 454 W/m2
15:44 24.1 °C 15.1 °C 1026.6 hPa ESE 14.8 km/h 23.3 km/h 57% 0.0 mm 560 W/m2
15:48 24.4 °C 15.1 °C 1026.3 hPa ESE 9.7 km/h 23.3 km/h 56% 0.0 mm 578 W/m2
15:54 24.3 °C 15.5 °C 1026.6 hPa ESE 9.7 km/h 23.3 km/h 58% 0.0 mm 476 W/m2
15:59 24.6 °C 15.3 °C 1026.6 hPa ESE 8.7 km/h 21.9 km/h 56% 0.0 mm 606 W/m2
16:04 24.3 °C 15.5 °C 1026.3 hPa ESE 11.1 km/h 23.3 km/h 58% 0.0 mm 344 W/m2
16:09 24.2 °C 14.9 °C 1026.6 hPa ESE 9.7 km/h 24.5 km/h 56% 0.0 mm 265 W/m2
16:14 24.6 °C 15.3 °C 1026.6 hPa ESE 11.1 km/h 24.5 km/h 56% 0.0 mm 565 W/m2
16:18 24.1 °C 15.1 °C 1026.6 hPa ESE 13.4 km/h 23.3 km/h 57% 0.0 mm 438 W/m2
16:24 23.8 °C 15.3 °C 1026.3 hPa SE 8.7 km/h 25.6 km/h 59% 0.0 mm 206 W/m2
16:43 22.7 °C 14.8 °C 1026.3 hPa East 3.5 km/h 27.0 km/h 61% 0.0 mm 262 W/m2
16:47 22.7 °C 15.1 °C 1026.3 hPa East 8.7 km/h 20.9 km/h 62% 0.0 mm 241 W/m2
16:53 22.6 °C 14.7 °C 1026.6 hPa ESE 17.2 km/h 19.5 km/h 61% 0.0 mm 219 W/m2
16:57 22.6 °C 14.9 °C 1026.3 hPa ESE 14.8 km/h 23.3 km/h 62% 0.0 mm 539 W/m2
17:03 23.3 °C 15.1 °C 1026.3 hPa ESE 15.8 km/h 25.6 km/h 60% 0.0 mm 509 W/m2
17:07 23.6 °C 15.1 °C 1026.3 hPa ESE 12.2 km/h 25.6 km/h 59% 0.0 mm 479 W/m2
17:12 23.5 °C 15.1 °C 1026.6 hPa ESE 14.8 km/h 24.5 km/h 59% 0.0 mm 448 W/m2
17:18 23.6 °C 14.9 °C 1026.6 hPa ESE 13.4 km/h 24.5 km/h 58% 0.0 mm 416 W/m2
17:22 23.6 °C 14.9 °C 1026.3 hPa ESE 11.1 km/h 28.0 km/h 58% 0.0 mm 391 W/m2
17:28 23.7 °C 14.9 °C 1026.3 hPa ESE 9.7 km/h 28.0 km/h 58% 0.0 mm 186 W/m2
17:33 22.9 °C 15.0 °C 1026.6 hPa ESE 14.8 km/h 19.5 km/h 61% 0.0 mm 135 W/m2
17:38 22.2 °C 14.6 °C 1026.3 hPa ESE 7.2 km/h 19.5 km/h 62% 0.0 mm 133 W/m2
17:43 22.0 °C 14.4 °C 1026.6 hPa ESE 13.4 km/h 21.9 km/h 62% 0.0 mm 205 W/m2
17:47 22.1 °C 14.5 °C 1026.6 hPa ESE 11.1 km/h 21.9 km/h 62% 0.0 mm 217 W/m2
17:53 22.4 °C 14.8 °C 1026.6 hPa SE 12.2 km/h 21.9 km/h 62% 0.0 mm 250 W/m2
17:57 22.3 °C 14.4 °C 1026.6 hPa SE 17.2 km/h 20.9 km/h 61% 0.0 mm 289 W/m2
18:03 22.9 °C 14.7 °C 1026.6 hPa ESE 12.2 km/h 20.9 km/h 60% 0.0 mm 285 W/m2
18:07 23.0 °C 14.6 °C 1026.6 hPa ESE 11.1 km/h 27.0 km/h 59% 0.0 mm 272 W/m2
18:12 23.1 °C 14.4 °C 1026.6 hPa ESE 9.7 km/h 27.0 km/h 58% 0.0 mm 247 W/m2
18:18 23.2 °C 14.5 °C 1026.6 hPa ESE 7.2 km/h 19.5 km/h 58% 0.0 mm 224 W/m2
18:22 23.1 °C 14.4 °C 1026.6 hPa ESE 8.7 km/h 17.2 km/h 58% 0.0 mm 205 W/m2
18:27 22.9 °C 14.7 °C 1026.6 hPa ESE 9.7 km/h 15.8 km/h 60% 0.0 mm 129 W/m2
18:32 22.4 °C 14.5 °C 1026.6 hPa ESE 9.7 km/h 17.2 km/h 61% 0.0 mm 110 W/m2
18:38 21.8 °C 14.4 °C 1026.6 hPa ESE 6.1 km/h 18.3 km/h 63% 0.0 mm 83 W/m2
18:42 21.6 °C 14.5 °C 1026.6 hPa ESE 8.7 km/h 18.3 km/h 64% 0.0 mm 75 W/m2
18:43 21.5 °C 14.4 °C 1027.0 hPa ESE 8.7 km/h 18.3 km/h 64% 0.0 mm 88 W/m2
18:49 21.5 °C 14.7 °C 1027.0 hPa ESE 9.7 km/h 19.5 km/h 65% 0.0 mm 77 W/m2
18:53 21.6 °C 14.8 °C 1026.6 hPa ESE 5.0 km/h 19.5 km/h 65% 0.0 mm 92 W/m2
18:59 21.5 °C 14.7 °C 1027.0 hPa ESE 6.1 km/h 19.5 km/h 65% 0.0 mm 90 W/m2
19:04 21.6 °C 14.5 °C 1027.0 hPa ESE 11.1 km/h 13.4 km/h 64% 0.0 mm 61 W/m2
19:08 21.4 °C 14.3 °C 1027.0 hPa ESE 7.2 km/h 13.4 km/h 64% 0.0 mm 69 W/m2
19:14 21.4 °C 14.3 °C 1027.0 hPa East 12.2 km/h 15.8 km/h 64% 0.0 mm 52 W/m2
19:18 21.0 °C 14.2 °C 1027.0 hPa East 7.2 km/h 17.2 km/h 65% 0.0 mm 41 W/m2
19:23 20.8 °C 14.4 °C 1027.0 hPa ESE 6.1 km/h 17.2 km/h 67% 0.0 mm 37 W/m2
19:28 20.7 °C 14.4 °C 1027.0 hPa ESE 7.2 km/h 14.8 km/h 67% 0.0 mm 33 W/m2
19:33 20.6 °C 14.3 °C 1027.0 hPa East 11.1 km/h 15.8 km/h 67% 0.0 mm 36 W/m2
19:38 20.4 °C 14.1 °C 1027.0 hPa East 11.1 km/h 17.2 km/h 67% 0.0 mm 24 W/m2
19:43 20.2 °C 13.9 °C 1027.0 hPa ESE 6.1 km/h 17.2 km/h 67% 0.0 mm 19 W/m2
19:49 20.1 °C 13.8 °C 1027.0 hPa East 7.2 km/h 14.8 km/h 67% 0.0 mm 14 W/m2
19:53 20.0 °C 13.7 °C 1027.0 hPa East 7.2 km/h 17.2 km/h 67% 0.0 mm 11 W/m2
19:59 19.8 °C 13.7 °C 1027.0 hPa East 12.2 km/h 17.2 km/h 68% 0.0 mm 7 W/m2
20:04 19.7 °C 13.7 °C 1027.0 hPa ENE 9.7 km/h 17.2 km/h 68% 0.0 mm 4 W/m2
20:08 19.6 °C 13.6 °C 1027.3 hPa East 6.1 km/h 17.2 km/h 68% 0.0 mm 1 W/m2
20:13 19.5 °C 13.7 °C 1027.0 hPa East 7.2 km/h 13.4 km/h 69% 0.0 mm 0 W/m2
20:18 19.4 °C 13.6 °C 1027.3 hPa East 5.0 km/h 13.4 km/h 69% 0.0 mm 0 W/m2
20:23 19.2 °C 13.6 °C 1027.3 hPa East 2.6 km/h 12.2 km/h 70% 0.0 mm 0 W/m2
20:28 19.1 °C 13.5 °C 1027.3 hPa ESE 3.5 km/h 7.2 km/h 70% 0.0 mm 0 W/m2
20:33 19.0 °C 13.4 °C 1027.3 hPa East 3.5 km/h 7.2 km/h 70% 0.0 mm 0 W/m2
20:38 18.9 °C 13.8 °C 1027.7 hPa East 2.6 km/h 6.1 km/h 72% 0.0 mm 0 W/m2
20:43 18.8 °C 13.9 °C 1027.7 hPa ENE 2.6 km/h 6.1 km/h 73% 0.0 mm 0 W/m2
20:53 18.2 °C 13.5 °C 1027.3 hPa Calm   5.0 km/h 74% 0.0 mm 0 W/m2
20:58 17.9 °C 13.2 °C 1027.7 hPa Calm   1.1 km/h 74% 0.0 mm 0 W/m2
21:03 17.7 °C 13.2 °C 1027.7 hPa Calm   1.1 km/h 75% 0.0 mm 0 W/m2
21:08 17.4 °C 12.9 °C 1027.7 hPa Calm   1.1 km/h 75% 0.0 mm 0 W/m2
21:13 17.2 °C 12.7 °C 1027.7 hPa Calm   1.1 km/h 75% 0.0 mm 0 W/m2
21:18 17.0 °C 12.7 °C 1027.7 hPa Calm     76% 0.0 mm 0 W/m2
21:23 16.8 °C 12.8 °C 1027.7 hPa Calm   1.1 km/h 77% 0.0 mm 0 W/m2
21:28 16.7 °C 12.7 °C 1028.0 hPa Calm   1.1 km/h 77% 0.0 mm 0 W/m2
21:33 16.7 °C 13.1 °C 1028.0 hPa Calm   2.6 km/h 79% 0.0 mm 0 W/m2
21:38 16.6 °C 12.9 °C 1028.0 hPa Calm   2.6 km/h 79% 0.0 mm 0 W/m2
21:43 16.5 °C 13.2 °C 1028.0 hPa Calm   3.5 km/h 81% 0.0 mm 0 W/m2
21:48 16.6 °C 13.5 °C 1028.0 hPa East 3.5 km/h 5.0 km/h 82% 0.0 mm 0 W/m2
21:53 16.7 °C 13.8 °C 1028.0 hPa East 5.0 km/h 7.2 km/h 83% 0.0 mm 0 W/m2
21:58 17.0 °C 13.9 °C 1028.0 hPa East 5.0 km/h 7.2 km/h 82% 0.0 mm 0 W/m2
22:03 17.2 °C 13.9 °C 1028.3 hPa East 2.6 km/h 7.2 km/h 81% 0.0 mm 0 W/m2
22:08 17.1 °C 13.8 °C 1028.3 hPa East 1.1 km/h 6.1 km/h 81% 0.0 mm 0 W/m2
22:13 17.1 °C 13.8 °C 1028.3 hPa Calm   6.1 km/h 81% 0.0 mm 0 W/m2
22:18 17.0 °C 13.7 °C 1028.3 hPa ENE 1.1 km/h 6.1 km/h 81% 0.0 mm 0 W/m2
22:23 17.0 °C 13.7 °C 1028.3 hPa East 2.6 km/h 6.1 km/h 81% 0.0 mm 0 W/m2
22:28 17.0 °C 13.7 °C 1028.7 hPa ENE 2.6 km/h 6.1 km/h 81% 0.0 mm 0 W/m2
22:33 16.9 °C 13.8 °C 1028.3 hPa ENE 2.6 km/h 5.0 km/h 82% 0.0 mm 0 W/m2
22:38 16.8 °C 13.7 °C 1028.3 hPa ENE 1.1 km/h 6.1 km/h 82% 0.0 mm 0 W/m2
22:43 16.7 °C 13.6 °C 1028.3 hPa ENE 2.6 km/h 6.1 km/h 82% 0.0 mm 0 W/m2
22:48 16.8 °C 13.9 °C 1028.7 hPa East 3.5 km/h 7.2 km/h 83% 0.0 mm 0 W/m2
22:53 16.8 °C 13.9 °C 1028.3 hPa ENE 3.5 km/h 7.2 km/h 83% 0.0 mm 0 W/m2
22:58 16.7 °C 13.8 °C 1028.3 hPa NE 2.6 km/h 6.1 km/h 83% 0.0 mm 0 W/m2
23:03 16.6 °C 13.7 °C 1028.7 hPa Calm   5.0 km/h 83% 0.0 mm 0 W/m2
23:08 16.4 °C 13.5 °C 1028.7 hPa NE 1.1 km/h 5.0 km/h 83% 0.0 mm 0 W/m2
23:13 16.0 °C 13.1 °C 1028.3 hPa NW 1.1 km/h 3.5 km/h 83% 0.0 mm 0 W/m2
23:18 15.7 °C 13.2 °C 1028.3 hPa Calm   3.5 km/h 85% 0.0 mm 0 W/m2
23:23 15.6 °C 13.3 °C 1028.3 hPa Calm   3.5 km/h 86% 0.0 mm 0 W/m2
23:28 15.4 °C 13.3 °C 1028.3 hPa Calm   2.6 km/h 87% 0.0 mm 0 W/m2
23:33 15.3 °C 13.2 °C 1028.3 hPa North 1.1 km/h 2.6 km/h 87% 0.0 mm 0 W/m2
23:38 15.2 °C 13.2 °C 1028.3 hPa NW 1.1 km/h 2.6 km/h 88% 0.0 mm 0 W/m2
23:43 15.1 °C 13.3 °C 1028.3 hPa Calm   2.6 km/h 89% 0.0 mm 0 W/m2
23:48 15.0 °C 13.2 °C 1028.3 hPa NNW 2.6 km/h 3.5 km/h 89% 0.0 mm 0 W/m2
23:53 14.9 °C 13.4 °C 1028.3 hPa North 1.1 km/h 3.5 km/h 91% 0.0 mm 0 W/m2
23:58 14.8 °C 13.5 °C 1028.3 hPa North 1.1 km/h 3.5 km/h 92% 0.0 mm 0 W/m2
Northern Hawkes Bay. New Zealand Historic Data
Compliments of Weather Underground - 2 mb